Hlavní strana
METAR-TAF:

METAR-TAF

Letiště :

Buffalo Narrows, Manitoba, Kanada

zeměpisná šířka: 55-50N, zeměpisná délka: 108-27W, výška: 434 m

Aktuální stav počasí

Zpráva byla vytvořena před 5 hodinami a 34 minutami, v 04:00 UTC
Jihojihovýchodní vítr 8 kt
Teplota 1°C
Vlhkost vzduchu 80%
Tlak 1019 hPa
Viditelnost: 24.1 km
Zataženo ve výšce 3500 ft

METAR: CYVT 170400Z 15008KT 15SM OVC035 01/M02 A3010 RMK SC8 LAST STFD OBS/NXT 171200 UTC SLP220

Čas: 04:34 (09:34 UTC)

Předpověď počasí

Zpráva byla vytvořena před 8 hodinami a 56 minutami, v 00:38 UTC
Předpověď platná od 17 v 01 UTC do 17 v 04 UTC
vítr z různých směrů 3 kt
Viditelnost: 10 km
Polojasno ve výšce 3000 ft
Oblačno až skoro zataženo ve výšce 10000 ft
Dočasný
od 17 v 01 UTC do 17 v 04 UTC
Oblačno až skoro zataženo ve výšce 3000 ft

TAF: CYVT 170038Z 1701/1704 VRB03KT P6SM SCT030 BKN100 TEMPO 1701/1704 BKN030 RMK NXT FCST WILL BE ISSUED AT 171345Z

Stav a předpovědi počasí z více než 4 000 letišť (zprávy METAR a TAF).

Červené a žluté tečky na mapě představují dostupné meteorologické stanice.

Když kurzor umístíte na tečku, zobrazí se název stanice.

Pak kliknutím zobrazíte stav a předpověď počasí.

Chcete-li změnit mapu, kliknutím na zelené tlačítko se znaménkem +mapu přiblížíte, kliknutím na zelené tlačítko se znaménkem – mapu oddálíte a kliknutím na zelené šipky přejdete na sousední mapy.


METAR-TAF: